PWSweather.com
Personal Weather Stations
Station Observations
JTOWN
Canterbrook Farms, Jeffersontown, KY 40299

Canterbrook FarmsJeffersontown, KY 40299

Lat: 38.155364, Lon: -85.47956

Elevation: 510

Station Type: Davis Vantage Pro2

http://www.canterbrookfarms.org/wx

Latest ConditionsUpdated 6:30:01 PM EST Sunday, Nov 23, 2014
Currently Today's Max Today's Min Today's Average
Temperature 55.6°F13.1°C 58.6°F14.8°C 38.6°F3.7°C 51.5°F10.8°C
Dew Point 54.2°F12.3°C 54.2°F12.3°C 31.9°F-0.1°C 43.8°F6.6°C
Winds 5.0 mph ESE8.0 kmh ESE 7.0 mph ESE11.3 kmh ESE - 2.1 mph 3.4 kmh
Wind Gusts 13.0 mph20.9 kmh 19.0 mph30.6 kmh - -
Humidity 95% 95% 57% 76%
Pressure 29.40 in995.6 mb 30.05 in1017.6 mb 29.40 in995.6 mb -
Precipitation - 0.51 in13.0 mm - -
Hour Temp Dew Point Humidity Winds Wind Gusts Pressure Precip Precip Rate Daily Precip Total
06:30 PM 55.6°F13.1°C 54.2°F12.3°C 95% 5.0 mph ESE8.0 kmh ESE 13.0 mph20.9 kmh 29.40 in995.6 mb 0.11 in2.8 mm 0.00 in/hr0.0 mm/hr 0.51 in13.0 mm
06:15 PM 55.6°F13.1°C 54.2°F12.3°C 95% 5.0 mph ESE8.0 kmh ESE 12.0 mph19.3 kmh 29.41 in995.9 mb 0.15 in3.8 mm 0.00 in/hr0.0 mm/hr 0.49 in12.4 mm
06:00 PM 55.4°F13.0°C 53.7°F12.1°C 94% 5.0 mph SE8.0 kmh SE 17.0 mph27.4 kmh 29.43 in996.6 mb 0.16 in4.1 mm 0.00 in/hr0.0 mm/hr 0.45 in11.4 mm
05:45 PM 55.3°F12.9°C 53.6°F12.0°C 94% 6.0 mph SE9.7 kmh SE 14.0 mph22.5 kmh 29.44 in997.0 mb 0.18 in4.6 mm 0.08 in/hr2.0 mm/hr 0.43 in10.9 mm
05:30 PM 55.1°F12.8°C 53.4°F11.9°C 94% 5.0 mph SE8.0 kmh SE 19.0 mph30.6 kmh 29.46 in997.6 mb 0.16 in4.1 mm 0.20 in/hr5.1 mm/hr 0.40 in10.2 mm
05:15 PM 55.0°F12.8°C 53.3°F11.8°C 94% 5.0 mph SE8.0 kmh SE 13.0 mph20.9 kmh 29.47 in998.0 mb 0.11 in2.8 mm 0.20 in/hr5.1 mm/hr 0.34 in8.6 mm
05:00 PM 54.8°F12.7°C 53.1°F11.7°C 94% 7.0 mph ESE11.3 kmh ESE 13.0 mph20.9 kmh 29.48 in998.3 mb 0.06 in1.5 mm 0.03 in/hr0.8 mm/hr 0.28 in7.1 mm
04:45 PM 54.7°F12.6°C 53.0°F11.7°C 94% 5.0 mph ESE8.0 kmh ESE 14.0 mph22.5 kmh 29.48 in998.3 mb 0.04 in1.0 mm 0.04 in/hr1.0 mm/hr 0.25 in6.4 mm
04:30 PM 54.5°F12.5°C 52.5°F11.4°C 93% 5.0 mph ESE8.0 kmh ESE 13.0 mph20.9 kmh 29.49 in998.6 mb 0.03 in0.8 mm 0.04 in/hr1.0 mm/hr 0.24 in6.1 mm
04:15 PM 54.2°F12.3°C 52.2°F11.2°C 93% 6.0 mph ESE9.7 kmh ESE 13.0 mph20.9 kmh 29.51 in999.3 mb 0.02 in0.5 mm 0.00 in/hr0.0 mm/hr 0.23 in5.8 mm
04:00 PM 53.9°F12.2°C 51.9°F11.1°C 93% 4.0 mph SE6.4 kmh SE 10.0 mph16.1 kmh 29.53 in1000.0 mb 0.02 in0.5 mm 0.00 in/hr0.0 mm/hr 0.22 in5.6 mm
03:45 PM 53.8°F12.1°C 51.8°F11.0°C 93% 5.0 mph ESE8.0 kmh ESE 11.0 mph17.7 kmh 29.54 in1000.3 mb 0.02 in0.5 mm 0.00 in/hr0.0 mm/hr 0.21 in5.3 mm
03:30 PM 53.8°F12.1°C 51.5°F10.8°C 92% 5.0 mph ESE8.0 kmh ESE 15.0 mph24.1 kmh 29.56 in1001.0 mb 0.02 in0.5 mm 0.00 in/hr0.0 mm/hr 0.21 in5.3 mm
03:15 PM 53.9°F12.2°C 51.6°F10.9°C 92% 6.0 mph ESE9.7 kmh ESE 13.0 mph20.9 kmh 29.57 in1001.4 mb 0.05 in1.3 mm 0.00 in/hr0.0 mm/hr 0.21 in5.3 mm
03:00 PM 53.9°F12.2°C 51.6°F10.9°C 92% 5.0 mph ESE8.0 kmh ESE 17.0 mph27.4 kmh 29.61 in1002.7 mb 0.07 in1.8 mm 0.01 in/hr0.3 mm/hr 0.20 in5.1 mm
02:45 PM 53.5°F11.9°C 51.2°F10.7°C 92% 3.0 mph E4.8 kmh E 11.0 mph17.7 kmh 29.61 in1002.7 mb 0.06 in1.5 mm 0.00 in/hr0.0 mm/hr 0.19 in4.8 mm
02:30 PM 53.3°F11.8°C 50.7°F10.4°C 91% 3.0 mph SE4.8 kmh SE 10.0 mph16.1 kmh 29.63 in1003.4 mb 0.07 in1.8 mm 0.12 in/hr3.0 mm/hr 0.19 in4.8 mm
02:15 PM 53.3°F11.8°C 50.1°F10.1°C 89% 3.0 mph ESE4.8 kmh ESE 9.0 mph14.5 kmh 29.65 in1004.1 mb 0.04 in1.0 mm 0.12 in/hr3.0 mm/hr 0.16 in4.1 mm
02:00 PM 53.6°F12.0°C 49.8°F9.9°C 87% 5.0 mph ESE8.0 kmh ESE 12.0 mph19.3 kmh 29.66 in1004.4 mb 0.01 in0.3 mm 0.00 in/hr0.0 mm/hr 0.13 in3.3 mm
01:45 PM 53.9°F12.2°C 49.5°F9.7°C 85% 4.0 mph E6.4 kmh E 9.0 mph14.5 kmh 29.67 in1004.7 mb 0.01 in0.3 mm 0.04 in/hr1.0 mm/hr 0.13 in3.3 mm
01:30 PM 55.0°F12.8°C 49.6°F9.8°C 82% 2.0 mph ESE3.2 kmh ESE 13.0 mph20.9 kmh 29.70 in1005.8 mb 0.00 in0.0 mm 0.00 in/hr0.0 mm/hr 0.12 in3.0 mm
01:15 PM 55.1°F12.8°C 49.7°F9.8°C 82% 2.0 mph ESE3.2 kmh ESE 6.0 mph9.7 kmh 29.71 in1006.1 mb 0.00 in0.0 mm 0.00 in/hr0.0 mm/hr 0.12 in3.0 mm
01:00 PM 55.1°F12.8°C 50.0°F10.0°C 83% 2.0 mph SE3.2 kmh SE 8.0 mph12.9 kmh 29.72 in1006.4 mb 0.04 in1.0 mm 0.00 in/hr0.0 mm/hr 0.12 in3.0 mm
12:45 PM 55.0°F12.8°C 49.9°F9.9°C 83% 1.0 mph ESE1.6 kmh ESE 5.0 mph8.0 kmh 29.73 in1006.8 mb 0.04 in1.0 mm 0.00 in/hr0.0 mm/hr 0.12 in3.0 mm
12:30 PM 54.8°F12.7°C 49.7°F9.8°C 83% Calm Calm 6.0 mph9.7 kmh 29.75 in1007.5 mb 0.04 in1.0 mm 0.00 in/hr0.0 mm/hr 0.12 in3.0 mm
12:15 PM 55.6°F13.1°C 48.5°F9.2°C 77% 4.0 mph SE6.4 kmh SE 12.0 mph19.3 kmh 29.77 in1008.1 mb 0.04 in1.0 mm 0.08 in/hr2.0 mm/hr 0.12 in3.0 mm
12:00 PM 56.6°F13.7°C 48.4°F9.1°C 74% 3.0 mph SE4.8 kmh SE 9.0 mph14.5 kmh 29.79 in1008.8 mb 0.02 in0.5 mm 0.00 in/hr0.0 mm/hr 0.08 in2.0 mm
11:45 AM 56.0°F13.3°C 47.5°F8.6°C 73% 5.0 mph ESE8.0 kmh ESE 11.0 mph17.7 kmh 29.80 in1009.1 mb 0.02 in0.5 mm 0.00 in/hr0.0 mm/hr 0.08 in2.0 mm
11:30 AM 55.9°F13.3°C 48.4°F9.1°C 76% 2.0 mph ESE3.2 kmh ESE 7.0 mph11.3 kmh 29.81 in1009.5 mb 0.02 in0.5 mm 0.00 in/hr0.0 mm/hr 0.08 in2.0 mm
11:15 AM 55.3°F12.9°C 47.2°F8.4°C 74% 3.0 mph SE4.8 kmh SE 8.0 mph12.9 kmh 29.82 in1009.8 mb 0.08 in2.0 mm 0.08 in/hr2.0 mm/hr 0.08 in2.0 mm
11:00 AM 57.5°F14.2°C 45.4°F7.4°C 64% 3.0 mph SE4.8 kmh SE 18.0 mph29.0 kmh 29.84 in1010.5 mb 0.06 in1.5 mm 0.00 in/hr0.0 mm/hr 0.06 in1.5 mm
10:45 AM 57.5°F14.2°C 44.6°F7.0°C 62% 2.0 mph SE3.2 kmh SE 9.0 mph14.5 kmh 29.85 in1010.8 mb 0.06 in1.5 mm 0.00 in/hr0.0 mm/hr 0.06 in1.5 mm
10:30 AM 57.8°F14.3°C 43.6°F6.4°C 59% 5.0 mph SE8.0 kmh SE 13.0 mph20.9 kmh 29.85 in1010.8 mb 0.06 in1.5 mm 0.24 in/hr6.1 mm/hr 0.06 in1.5 mm
10:15 AM 58.6°F14.8°C 43.4°F6.3°C 57% 4.0 mph SE6.4 kmh SE 14.0 mph22.5 kmh 29.87 in1011.5 mb 0.00 in0.0 mm 0.00 in/hr0.0 mm/hr 0.00 in0.0 mm
10:00 AM 56.3°F13.5°C 43.0°F6.1°C 61% 2.0 mph E3.2 kmh E 9.0 mph14.5 kmh 29.87 in1011.5 mb 0.00 in0.0 mm 0.00 in/hr0.0 mm/hr 0.00 in0.0 mm
09:45 AM 54.7°F12.6°C 42.3°F5.7°C 63% 2.0 mph ESE3.2 kmh ESE 7.0 mph11.3 kmh 29.89 in1012.2 mb 0.00 in0.0 mm 0.00 in/hr0.0 mm/hr 0.00 in0.0 mm
09:30 AM 54.4°F12.4°C 42.1°F5.6°C 63% 2.0 mph ESE3.2 kmh ESE 8.0 mph12.9 kmh 29.89 in1012.2 mb 0.00 in0.0 mm 0.00 in/hr0.0 mm/hr 0.00 in0.0 mm
09:15 AM 54.8°F12.7°C 42.0°F5.6°C 62% 3.0 mph ESE4.8 kmh ESE 7.0 mph11.3 kmh 29.90 in1012.5 mb 0.00 in0.0 mm 0.00 in/hr0.0 mm/hr 0.00 in0.0 mm
09:00 AM 54.7°F12.6°C 41.9°F5.5°C 62% 1.0 mph ESE1.6 kmh ESE 5.0 mph8.0 kmh 29.91 in1012.9 mb 0.00 in0.0 mm 0.00 in/hr0.0 mm/hr 0.00 in0.0 mm
08:45 AM 54.1°F12.3°C 41.8°F5.4°C 63% 1.0 mph ESE1.6 kmh ESE 6.0 mph9.7 kmh 29.91 in1012.9 mb 0.00 in0.0 mm 0.00 in/hr0.0 mm/hr 0.00 in0.0 mm
08:30 AM 53.8°F12.1°C 41.5°F5.3°C 63% 1.0 mph ESE1.6 kmh ESE 6.0 mph9.7 kmh 29.92 in1013.2 mb 0.00 in0.0 mm 0.00 in/hr0.0 mm/hr 0.00 in0.0 mm
08:15 AM 53.8°F12.1°C 41.5°F5.3°C 63% 1.0 mph SE1.6 kmh SE 8.0 mph12.9 kmh 29.93 in1013.5 mb 0.00 in0.0 mm 0.00 in/hr0.0 mm/hr 0.00 in0.0 mm
08:00 AM 53.6°F12.0°C 41.3°F5.2°C 63% 1.0 mph SE1.6 kmh SE 8.0 mph12.9 kmh 29.94 in1013.9 mb 0.00 in0.0 mm 0.00 in/hr0.0 mm/hr 0.00 in0.0 mm
07:45 AM 53.5°F11.9°C 41.2°F5.1°C 63% 1.0 mph SE1.6 kmh SE 7.0 mph11.3 kmh 29.95 in1014.2 mb 0.00 in0.0 mm 0.00 in/hr0.0 mm/hr 0.00 in0.0 mm
07:30 AM 53.8°F12.1°C 41.5°F5.3°C 63% 2.0 mph SE3.2 kmh SE 6.0 mph9.7 kmh 29.95 in1014.2 mb 0.00 in0.0 mm 0.00 in/hr0.0 mm/hr 0.00 in0.0 mm
07:15 AM 53.6°F12.0°C 41.7°F5.4°C 64% 1.0 mph SE1.6 kmh SE 9.0 mph14.5 kmh 29.96 in1014.6 mb 0.00 in0.0 mm 0.00 in/hr0.0 mm/hr 0.00 in0.0 mm
07:00 AM 53.3°F11.8°C 41.8°F5.4°C 65% Calm Calm 6.0 mph9.7 kmh 29.96 in1014.6 mb 0.00 in0.0 mm 0.00 in/hr0.0 mm/hr 0.00 in0.0 mm
06:45 AM 52.9°F11.6°C 41.8°F5.4°C 66% 2.0 mph SE3.2 kmh SE 8.0 mph12.9 kmh 29.96 in1014.6 mb 0.00 in0.0 mm 0.00 in/hr0.0 mm/hr 0.00 in0.0 mm
06:30 AM 50.8°F10.4°C 41.4°F5.2°C 70% 1.0 mph SE1.6 kmh SE 6.0 mph9.7 kmh 29.96 in1014.6 mb 0.00 in0.0 mm 0.00 in/hr0.0 mm/hr 0.00 in0.0 mm
06:15 AM 48.2°F9.0°C 39.9°F4.4°C 73% Calm Calm 4.0 mph6.4 kmh 29.96 in1014.6 mb 0.00 in0.0 mm 0.00 in/hr0.0 mm/hr 0.00 in0.0 mm
06:00 AM 47.7°F8.7°C 39.5°F4.2°C 73% Calm Calm -- 29.96 in1014.6 mb 0.00 in0.0 mm 0.00 in/hr0.0 mm/hr 0.00 in0.0 mm
05:45 AM 48.5°F9.2°C 39.5°F4.2°C 71% Calm Calm -- 29.95 in1014.2 mb 0.00 in0.0 mm 0.00 in/hr0.0 mm/hr 0.00 in0.0 mm
05:30 AM 49.4°F9.7°C 39.3°F4.1°C 68% Calm Calm -- 29.96 in1014.6 mb 0.00 in0.0 mm 0.00 in/hr0.0 mm/hr 0.00 in0.0 mm
05:15 AM 51.6°F10.9°C 39.4°F4.1°C 63% Calm Calm -- 29.98 in1015.2 mb 0.00 in0.0 mm 0.00 in/hr0.0 mm/hr 0.00 in0.0 mm
05:00 AM 53.5°F11.9°C 39.5°F4.2°C 59% Calm Calm 4.0 mph6.4 kmh 29.98 in1015.2 mb 0.00 in0.0 mm 0.00 in/hr0.0 mm/hr 0.00 in0.0 mm
04:45 AM 54.4°F12.4°C 40.4°F4.7°C 59% 1.0 mph SE1.6 kmh SE 6.0 mph9.7 kmh 29.99 in1015.6 mb 0.00 in0.0 mm 0.00 in/hr0.0 mm/hr 0.00 in0.0 mm
04:30 AM 54.2°F12.3°C 40.2°F4.6°C 59% 1.0 mph SSW1.6 kmh SSW 5.0 mph8.0 kmh 30.00 in1015.9 mb 0.00 in0.0 mm 0.00 in/hr0.0 mm/hr 0.00 in0.0 mm
04:15 AM 53.6°F12.0°C 40.0°F4.4°C 60% Calm Calm 2.0 mph3.2 kmh 30.00 in1015.9 mb 0.00 in0.0 mm 0.00 in/hr0.0 mm/hr 0.00 in0.0 mm
04:00 AM 52.8°F11.6°C 40.1°F4.5°C 62% 1.0 mph SW1.6 kmh SW 5.0 mph8.0 kmh 30.00 in1015.9 mb 0.00 in0.0 mm 0.00 in/hr0.0 mm/hr 0.00 in0.0 mm
03:45 AM 51.4°F10.8°C 39.6°F4.2°C 64% Calm Calm -- 30.00 in1015.9 mb 0.00 in0.0 mm 0.00 in/hr0.0 mm/hr 0.00 in0.0 mm
03:30 AM 49.5°F9.7°C 39.4°F4.1°C 68% Calm Calm 5.0 mph8.0 kmh 30.01 in1016.3 mb 0.00 in0.0 mm 0.00 in/hr0.0 mm/hr 0.00 in0.0 mm
03:15 AM 46.8°F8.2°C 38.2°F3.4°C 72% Calm Calm 2.0 mph3.2 kmh 30.01 in1016.3 mb 0.00 in0.0 mm 0.00 in/hr0.0 mm/hr 0.00 in0.0 mm
03:00 AM 43.1°F6.2°C 37.0°F2.8°C 79% Calm Calm -- 30.02 in1016.6 mb 0.00 in0.0 mm 0.00 in/hr0.0 mm/hr 0.00 in0.0 mm
02:45 AM 41.6°F5.3°C 35.6°F2.0°C 79% Calm Calm -- 30.02 in1016.6 mb 0.00 in0.0 mm 0.00 in/hr0.0 mm/hr 0.00 in0.0 mm
02:30 AM 41.1°F5.1°C 35.1°F1.7°C 79% Calm Calm -- 30.02 in1016.6 mb 0.00 in0.0 mm 0.00 in/hr0.0 mm/hr 0.00 in0.0 mm
02:15 AM 40.6°F4.8°C 34.9°F1.6°C 80% Calm Calm -- 30.02 in1016.6 mb 0.00 in0.0 mm 0.00 in/hr0.0 mm/hr 0.00 in0.0 mm
02:00 AM 39.9°F4.4°C 34.2°F1.2°C 80% Calm Calm -- 30.03 in1016.9 mb 0.00 in0.0 mm 0.00 in/hr0.0 mm/hr 0.00 in0.0 mm
01:45 AM 39.3°F4.1°C 33.3°F0.7°C 79% Calm Calm -- 30.03 in1016.9 mb 0.00 in0.0 mm 0.00 in/hr0.0 mm/hr 0.00 in0.0 mm
01:30 AM 39.1°F3.9°C 32.5°F0.3°C 77% Calm Calm -- 30.03 in1016.9 mb 0.00 in0.0 mm 0.00 in/hr0.0 mm/hr 0.00 in0.0 mm
01:15 AM 39.8°F4.3°C 32.2°F0.1°C 74% Calm Calm -- 30.04 in1017.3 mb 0.00 in0.0 mm 0.00 in/hr0.0 mm/hr 0.00 in0.0 mm
01:00 AM 40.9°F4.9°C 33.2°F0.7°C 74% Calm Calm -- 30.04 in1017.3 mb 0.00 in0.0 mm 0.00 in/hr0.0 mm/hr 0.00 in0.0 mm
12:45 AM 39.6°F4.2°C 33.0°F0.6°C 77% Calm Calm 2.0 mph3.2 kmh 30.04 in1017.3 mb 0.00 in0.0 mm 0.00 in/hr0.0 mm/hr 0.00 in0.0 mm
12:30 AM 38.6°F3.7°C 32.0°F0.0°C 77% Calm Calm -- 30.05 in1017.6 mb 0.00 in0.0 mm 0.00 in/hr0.0 mm/hr 0.00 in0.0 mm
12:15 AM 38.6°F3.7°C 32.0°F0.0°C 77% Calm Calm 2.0 mph3.2 kmh 30.05 in1017.6 mb 0.00 in0.0 mm 0.00 in/hr0.0 mm/hr 0.00 in0.0 mm
12:00 AM 38.8°F3.8°C 31.9°F-0.1°C 76% Calm Calm -- 30.05 in1017.6 mb 0.00 in0.0 mm 0.00 in/hr0.0 mm/hr 0.01 in0.3 mm